sensor_id;sensor_type;location;lat;lon;timestamp;P1;durP1;ratioP1;P2;durP2;ratioP2
22030;SDS011;11179;52.106;21.024;2023-04-29T00:00:33;48.93;;;21.80;;
22030;SDS011;11179;52.106;21.024;2023-04-29T00:02:58;45.20;;;20.37;;
22030;SDS011;11179;52.106;21.024;2023-04-29T00:05:25;32.93;;;19.43;;
22030;SDS011;11179;52.106;21.024;2023-04-29T00:07:50;35.63;;;16.90;;
22030;SDS011;11179;52.106;21.024;2023-04-29T00:10:16;29.67;;;16.77;;
22030;SDS011;11179;52.106;21.024;2023-04-29T00:12:41;32.60;;;16.77;;
22030;SDS011;11179;52.106;21.024;2023-04-29T00:15:07;37.90;;;17.97;;
22030;SDS011;11179;52.106;21.024;2023-04-29T00:17:33;33.50;;;18.63;;
22030;SDS011;11179;52.106;21.024;2023-04-29T00:19:58;32.60;;;17.10;;
22030;SDS011;11179;52.106;21.024;2023-04-29T00:22:24;33.63;;;17.20;;
22030;SDS011;11179;52.106;21.024;2023-04-29T00:24:49;31.80;;;17.50;;
22030;SDS011;11179;52.106;21.024;2023-04-29T00:27:15;36.73;;;18.30;;
22030;SDS011;11179;52.106;21.024;2023-04-29T00:29:41;35.50;;;18.73;;
22030;SDS011;11179;52.106;21.024;2023-04-29T00:32:07;36.47;;;18.83;;
22030;SDS011;11179;52.106;21.024;2023-04-29T00:34:32;41.17;;;19.10;;
22030;SDS011;11179;52.106;21.024;2023-04-29T00:36:58;33.20;;;18.33;;
22030;SDS011;11179;52.106;21.024;2023-04-29T00:39:23;36.03;;;18.67;;
22030;SDS011;11179;52.106;21.024;2023-04-29T00:41:49;38.13;;;19.00;;
22030;SDS011;11179;52.106;21.024;2023-04-29T00:44:14;43.33;;;20.30;;
22030;SDS011;11179;52.106;21.024;2023-04-29T00:46:40;38.03;;;20.67;;
22030;SDS011;11179;52.106;21.024;2023-04-29T00:49:05;37.73;;;21.40;;
22030;SDS011;11179;52.106;21.024;2023-04-29T00:51:32;38.53;;;20.63;;
22030;SDS011;11179;52.106;21.024;2023-04-29T00:53:58;36.40;;;20.40;;
22030;SDS011;11179;52.106;21.024;2023-04-29T00:56:23;39.77;;;19.87;;
22030;SDS011;11179;52.106;21.024;2023-04-29T00:58:49;38.03;;;20.20;;
22030;SDS011;11179;52.106;21.024;2023-04-29T01:01:16;38.33;;;18.33;;
22030;SDS011;11179;52.106;21.024;2023-04-29T01:03:45;32.37;;;17.40;;
22030;SDS011;11179;52.106;21.024;2023-04-29T01:11:54;37.60;;;18.97;;
22030;SDS011;11179;52.106;21.024;2023-04-29T01:14:30;44.43;;;18.90;;
22030;SDS011;11179;52.106;21.024;2023-04-29T01:16:59;38.47;;;19.13;;
22030;SDS011;11179;52.106;21.024;2023-04-29T01:22:14;31.47;;;16.67;;
22030;SDS011;11179;52.106;21.024;2023-04-29T01:24:41;40.43;;;21.60;;
22030;SDS011;11179;52.106;21.024;2023-04-29T01:27:13;39.43;;;22.23;;
22030;SDS011;11179;52.106;21.024;2023-04-29T01:32:28;34.50;;;20.00;;
22030;SDS011;11179;52.106;21.024;2023-04-29T01:38:15;28.87;;;17.43;;
22030;SDS011;11179;52.106;21.024;2023-04-29T01:40:52;33.43;;;18.63;;
22030;SDS011;11179;52.106;21.024;2023-04-29T01:43:27;30.50;;;17.80;;
22030;SDS011;11179;52.106;21.024;2023-04-29T01:45:54;31.23;;;17.43;;
22030;SDS011;11179;52.106;21.024;2023-04-29T01:48:21;34.40;;;17.40;;
22030;SDS011;11179;52.106;21.024;2023-04-29T01:50:48;34.77;;;17.10;;
22030;SDS011;11179;52.106;21.024;2023-04-29T01:53:13;33.20;;;17.50;;
22030;SDS011;11179;52.106;21.024;2023-04-29T01:55:39;28.17;;;16.50;;
22030;SDS011;11179;52.106;21.024;2023-04-29T01:58:04;29.07;;;16.13;;
22030;SDS011;11179;52.106;21.024;2023-04-29T02:00:30;35.23;;;18.00;;
22030;SDS011;11179;52.106;21.024;2023-04-29T02:02:55;36.57;;;17.03;;
22030;SDS011;11179;52.106;21.024;2023-04-29T02:05:20;32.17;;;17.37;;
22030;SDS011;11179;52.106;21.024;2023-04-29T02:07:46;32.30;;;18.10;;
22030;SDS011;11179;52.106;21.024;2023-04-29T02:10:11;28.37;;;16.47;;
22030;SDS011;11179;52.106;21.024;2023-04-29T02:12:37;32.97;;;17.60;;
22030;SDS011;11179;52.106;21.024;2023-04-29T02:15:03;30.60;;;17.50;;
22030;SDS011;11179;52.106;21.024;2023-04-29T02:17:28;32.23;;;17.00;;
22030;SDS011;11179;52.106;21.024;2023-04-29T02:19:54;32.50;;;17.30;;
22030;SDS011;11179;52.106;21.024;2023-04-29T02:22:19;29.60;;;16.37;;
22030;SDS011;11179;52.106;21.024;2023-04-29T02:24:45;32.87;;;16.70;;
22030;SDS011;11179;52.106;21.024;2023-04-29T02:27:10;34.20;;;17.30;;
22030;SDS011;11179;52.106;21.024;2023-04-29T02:29:36;33.33;;;15.30;;
22030;SDS011;11179;52.106;21.024;2023-04-29T02:32:01;29.53;;;15.93;;
22030;SDS011;11179;52.106;21.024;2023-04-29T02:34:26;28.43;;;13.73;;
22030;SDS011;11179;52.106;21.024;2023-04-29T02:36:52;28.77;;;13.87;;
22030;SDS011;11179;52.106;21.024;2023-04-29T02:39:17;33.20;;;14.47;;
22030;SDS011;11179;52.106;21.024;2023-04-29T02:41:43;26.90;;;13.63;;
22030;SDS011;11179;52.106;21.024;2023-04-29T02:44:09;29.30;;;15.23;;
22030;SDS011;11179;52.106;21.024;2023-04-29T02:46:34;24.13;;;13.57;;
22030;SDS011;11179;52.106;21.024;2023-04-29T02:49:00;25.27;;;13.93;;
22030;SDS011;11179;52.106;21.024;2023-04-29T02:51:27;23.47;;;13.07;;
22030;SDS011;11179;52.106;21.024;2023-04-29T02:53:53;26.60;;;12.60;;
22030;SDS011;11179;52.106;21.024;2023-04-29T02:56:18;25.07;;;12.57;;
22030;SDS011;11179;52.106;21.024;2023-04-29T02:58:44;27.87;;;14.07;;
22030;SDS011;11179;52.106;21.024;2023-04-29T03:01:09;22.60;;;11.73;;
22030;SDS011;11179;52.106;21.024;2023-04-29T03:03:35;25.13;;;12.90;;
22030;SDS011;11179;52.106;21.024;2023-04-29T03:06:00;24.63;;;13.40;;
22030;SDS011;11179;52.106;21.024;2023-04-29T03:08:26;24.83;;;13.40;;
22030;SDS011;11179;52.106;21.024;2023-04-29T03:10:52;28.90;;;13.30;;
22030;SDS011;11179;52.106;21.024;2023-04-29T03:13:17;21.87;;;11.87;;
22030;SDS011;11179;52.106;21.024;2023-04-29T03:15:43;26.33;;;13.13;;
22030;SDS011;11179;52.106;21.024;2023-04-29T03:18:08;29.07;;;14.43;;
22030;SDS011;11179;52.106;21.024;2023-04-29T03:20:33;34.63;;;13.47;;
22030;SDS011;11179;52.106;21.024;2023-04-29T03:22:59;40.80;;;15.93;;
22030;SDS011;11179;52.106;21.024;2023-04-29T03:25:24;35.47;;;15.90;;
22030;SDS011;11179;52.106;21.024;2023-04-29T03:27:50;25.40;;;13.77;;
22030;SDS011;11179;52.106;21.024;2023-04-29T03:30:15;26.87;;;13.27;;
22030;SDS011;11179;52.106;21.024;2023-04-29T03:32:41;23.37;;;12.07;;
22030;SDS011;11179;52.106;21.024;2023-04-29T03:35:07;26.40;;;11.77;;
22030;SDS011;11179;52.106;21.024;2023-04-29T03:37:32;24.30;;;11.67;;
22030;SDS011;11179;52.106;21.024;2023-04-29T03:39:57;20.40;;;11.20;;
22030;SDS011;11179;52.106;21.024;2023-04-29T03:42:23;23.13;;;11.30;;
22030;SDS011;11179;52.106;21.024;2023-04-29T03:44:48;19.20;;;10.80;;
22030;SDS011;11179;52.106;21.024;2023-04-29T03:47:14;22.70;;;11.93;;
22030;SDS011;11179;52.106;21.024;2023-04-29T03:49:39;20.50;;;12.07;;
22030;SDS011;11179;52.106;21.024;2023-04-29T03:52:05;21.30;;;10.87;;
22030;SDS011;11179;52.106;21.024;2023-04-29T03:54:30;23.43;;;10.93;;
22030;SDS011;11179;52.106;21.024;2023-04-29T03:56:55;22.40;;;12.10;;
22030;SDS011;11179;52.106;21.024;2023-04-29T03:59:21;23.30;;;12.17;;
22030;SDS011;11179;52.106;21.024;2023-04-29T04:01:46;19.67;;;11.27;;
22030;SDS011;11179;52.106;21.024;2023-04-29T04:04:11;19.90;;;10.40;;
22030;SDS011;11179;52.106;21.024;2023-04-29T04:06:37;22.73;;;10.63;;
22030;SDS011;11179;52.106;21.024;2023-04-29T04:09:03;22.40;;;10.27;;
22030;SDS011;11179;52.106;21.024;2023-04-29T04:11:28;20.20;;;9.90;;
22030;SDS011;11179;52.106;21.024;2023-04-29T04:13:53;16.93;;;9.20;;
22030;SDS011;11179;52.106;21.024;2023-04-29T04:16:19;19.37;;;9.60;;
22030;SDS011;11179;52.106;21.024;2023-04-29T04:18:44;16.10;;;8.83;;
22030;SDS011;11179;52.106;21.024;2023-04-29T04:21:10;17.00;;;8.57;;
22030;SDS011;11179;52.106;21.024;2023-04-29T04:23:36;15.10;;;8.00;;
22030;SDS011;11179;52.106;21.024;2023-04-29T04:26:06;15.17;;;8.90;;
22030;SDS011;11179;52.106;21.024;2023-04-29T04:28:32;21.43;;;9.10;;
22030;SDS011;11179;52.106;21.024;2023-04-29T04:30:57;17.13;;;9.63;;
22030;SDS011;11179;52.106;21.024;2023-04-29T04:33:23;16.60;;;10.00;;
22030;SDS011;11179;52.106;21.024;2023-04-29T04:35:49;19.07;;;9.00;;
22030;SDS011;11179;52.106;21.024;2023-04-29T04:38:14;15.93;;;8.67;;
22030;SDS011;11179;52.106;21.024;2023-04-29T04:40:40;16.30;;;8.70;;
22030;SDS011;11179;52.106;21.024;2023-04-29T04:43:06;16.93;;;8.60;;
22030;SDS011;11179;52.106;21.024;2023-04-29T04:45:31;17.83;;;8.07;;
22030;SDS011;11179;52.106;21.024;2023-04-29T04:47:57;16.37;;;7.90;;
22030;SDS011;11179;52.106;21.024;2023-04-29T04:50:22;19.43;;;7.67;;
22030;SDS011;11179;52.106;21.024;2023-04-29T04:52:47;15.27;;;8.40;;
22030;SDS011;11179;52.106;21.024;2023-04-29T04:55:13;15.40;;;7.10;;
22030;SDS011;11179;52.106;21.024;2023-04-29T04:57:38;14.90;;;7.70;;
22030;SDS011;11179;52.106;21.024;2023-04-29T05:00:03;16.63;;;7.70;;
22030;SDS011;11179;52.106;21.024;2023-04-29T05:02:29;17.50;;;9.43;;
22030;SDS011;11179;52.106;21.024;2023-04-29T05:04:55;12.10;;;7.00;;
22030;SDS011;11179;52.106;21.024;2023-04-29T05:07:20;12.83;;;7.40;;
22030;SDS011;11179;52.106;21.024;2023-04-29T05:09:46;15.03;;;7.20;;
22030;SDS011;11179;52.106;21.024;2023-04-29T05:12:11;17.40;;;8.33;;
22030;SDS011;11179;52.106;21.024;2023-04-29T05:14:36;15.23;;;7.77;;
22030;SDS011;11179;52.106;21.024;2023-04-29T05:17:02;16.13;;;6.97;;
22030;SDS011;11179;52.106;21.024;2023-04-29T05:19:27;24.43;;;8.07;;
22030;SDS011;11179;52.106;21.024;2023-04-29T05:21:52;17.50;;;8.37;;
22030;SDS011;11179;52.106;21.024;2023-04-29T05:24:18;13.80;;;7.47;;
22030;SDS011;11179;52.106;21.024;2023-04-29T05:26:43;13.63;;;6.93;;
22030;SDS011;11179;52.106;21.024;2023-04-29T05:29:09;12.03;;;6.60;;
22030;SDS011;11179;52.106;21.024;2023-04-29T05:31:36;15.40;;;8.33;;
22030;SDS011;11179;52.106;21.024;2023-04-29T05:34:02;13.67;;;7.10;;
22030;SDS011;11179;52.106;21.024;2023-04-29T05:36:28;22.00;;;7.20;;
22030;SDS011;11179;52.106;21.024;2023-04-29T05:38:53;14.00;;;7.13;;
22030;SDS011;11179;52.106;21.024;2023-04-29T05:41:19;15.00;;;6.40;;
22030;SDS011;11179;52.106;21.024;2023-04-29T05:43:44;12.10;;;5.90;;
22030;SDS011;11179;52.106;21.024;2023-04-29T05:46:10;15.50;;;6.63;;
22030;SDS011;11179;52.106;21.024;2023-04-29T05:48:35;14.10;;;6.77;;
22030;SDS011;11179;52.106;21.024;2023-04-29T05:51:00;16.37;;;6.90;;
22030;SDS011;11179;52.106;21.024;2023-04-29T05:53:26;13.70;;;6.23;;
22030;SDS011;11179;52.106;21.024;2023-04-29T05:55:51;12.07;;;5.70;;
22030;SDS011;11179;52.106;21.024;2023-04-29T05:58:17;20.17;;;7.73;;
22030;SDS011;11179;52.106;21.024;2023-04-29T06:00:42;11.03;;;6.40;;
22030;SDS011;11179;52.106;21.024;2023-04-29T06:03:08;13.27;;;6.27;;
22030;SDS011;11179;52.106;21.024;2023-04-29T06:05:35;19.20;;;7.27;;
22030;SDS011;11179;52.106;21.024;2023-04-29T06:08:01;14.77;;;6.60;;
22030;SDS011;11179;52.106;21.024;2023-04-29T06:10:27;12.47;;;6.63;;
22030;SDS011;11179;52.106;21.024;2023-04-29T06:12:52;15.17;;;6.33;;
22030;SDS011;11179;52.106;21.024;2023-04-29T06:15:17;11.60;;;5.77;;
22030;SDS011;11179;52.106;21.024;2023-04-29T06:17:43;15.93;;;6.77;;
22030;SDS011;11179;52.106;21.024;2023-04-29T06:20:09;22.50;;;6.70;;
22030;SDS011;11179;52.106;21.024;2023-04-29T06:22:35;17.57;;;6.33;;
22030;SDS011;11179;52.106;21.024;2023-04-29T06:25:00;18.67;;;5.90;;
22030;SDS011;11179;52.106;21.024;2023-04-29T06:27:25;12.27;;;6.00;;
22030;SDS011;11179;52.106;21.024;2023-04-29T06:29:52;14.30;;;6.30;;
22030;SDS011;11179;52.106;21.024;2023-04-29T06:32:17;11.27;;;5.80;;
22030;SDS011;11179;52.106;21.024;2023-04-29T06:34:42;16.27;;;6.40;;
22030;SDS011;11179;52.106;21.024;2023-04-29T06:37:09;12.10;;;6.10;;
22030;SDS011;11179;52.106;21.024;2023-04-29T06:39:34;10.37;;;5.80;;
22030;SDS011;11179;52.106;21.024;2023-04-29T06:42:00;10.80;;;5.30;;
22030;SDS011;11179;52.106;21.024;2023-04-29T06:44:25;15.03;;;5.43;;
22030;SDS011;11179;52.106;21.024;2023-04-29T06:46:51;22.33;;;6.30;;
22030;SDS011;11179;52.106;21.024;2023-04-29T06:49:17;10.90;;;5.30;;
22030;SDS011;11179;52.106;21.024;2023-04-29T06:51:42;11.63;;;6.03;;
22030;SDS011;11179;52.106;21.024;2023-04-29T06:54:07;12.30;;;5.33;;
22030;SDS011;11179;52.106;21.024;2023-04-29T06:56:33;13.20;;;6.30;;
22030;SDS011;11179;52.106;21.024;2023-04-29T06:58:58;21.10;;;6.27;;
22030;SDS011;11179;52.106;21.024;2023-04-29T07:01:24;10.80;;;6.17;;
22030;SDS011;11179;52.106;21.024;2023-04-29T07:03:49;12.47;;;6.63;;
22030;SDS011;11179;52.106;21.024;2023-04-29T07:06:14;11.57;;;6.10;;
22030;SDS011;11179;52.106;21.024;2023-04-29T07:08:40;13.07;;;5.53;;
22030;SDS011;11179;52.106;21.024;2023-04-29T07:11:05;13.47;;;6.13;;
22030;SDS011;11179;52.106;21.024;2023-04-29T07:13:30;10.30;;;5.93;;
22030;SDS011;11179;52.106;21.024;2023-04-29T07:15:56;12.40;;;5.37;;
22030;SDS011;11179;52.106;21.024;2023-04-29T07:18:21;11.70;;;5.50;;
22030;SDS011;11179;52.106;21.024;2023-04-29T07:20:47;13.47;;;4.90;;
22030;SDS011;11179;52.106;21.024;2023-04-29T07:23:13;12.83;;;4.93;;
22030;SDS011;11179;52.106;21.024;2023-04-29T07:25:39;8.60;;;4.67;;
22030;SDS011;11179;52.106;21.024;2023-04-29T07:28:05;9.83;;;4.60;;
22030;SDS011;11179;52.106;21.024;2023-04-29T07:30:30;10.97;;;4.90;;
22030;SDS011;11179;52.106;21.024;2023-04-29T07:32:56;12.97;;;5.10;;
22030;SDS011;11179;52.106;21.024;2023-04-29T07:35:21;11.43;;;5.07;;
22030;SDS011;11179;52.106;21.024;2023-04-29T07:37:46;10.37;;;4.60;;
22030;SDS011;11179;52.106;21.024;2023-04-29T07:40:12;8.70;;;4.20;;
22030;SDS011;11179;52.106;21.024;2023-04-29T07:42:37;9.97;;;4.30;;
22030;SDS011;11179;52.106;21.024;2023-04-29T07:45:03;15.03;;;4.50;;
22030;SDS011;11179;52.106;21.024;2023-04-29T07:47:29;12.10;;;5.47;;
22030;SDS011;11179;52.106;21.024;2023-04-29T07:49:55;8.50;;;4.30;;
22030;SDS011;11179;52.106;21.024;2023-04-29T07:52:21;8.90;;;4.13;;
22030;SDS011;11179;52.106;21.024;2023-04-29T07:54:46;10.60;;;4.60;;
22030;SDS011;11179;52.106;21.024;2023-04-29T07:57:12;10.73;;;4.10;;
22030;SDS011;11179;52.106;21.024;2023-04-29T07:59:37;11.07;;;5.87;;
22030;SDS011;11179;52.106;21.024;2023-04-29T08:02:03;11.80;;;4.33;;
22030;SDS011;11179;52.106;21.024;2023-04-29T08:04:28;12.23;;;5.50;;
22030;SDS011;11179;52.106;21.024;2023-04-29T08:06:54;16.20;;;5.00;;
22030;SDS011;11179;52.106;21.024;2023-04-29T08:09:19;11.00;;;4.37;;
22030;SDS011;11179;52.106;21.024;2023-04-29T08:11:45;13.60;;;4.63;;
22030;SDS011;11179;52.106;21.024;2023-04-29T08:14:10;12.90;;;4.80;;
22030;SDS011;11179;52.106;21.024;2023-04-29T08:16:36;11.93;;;4.20;;
22030;SDS011;11179;52.106;21.024;2023-04-29T08:19:01;16.80;;;5.33;;
22030;SDS011;11179;52.106;21.024;2023-04-29T08:21:26;13.90;;;4.80;;
22030;SDS011;11179;52.106;21.024;2023-04-29T08:23:52;8.20;;;4.07;;
22030;SDS011;11179;52.106;21.024;2023-04-29T08:26:18;9.23;;;4.50;;
22030;SDS011;11179;52.106;21.024;2023-04-29T08:28:43;15.57;;;4.57;;
22030;SDS011;11179;52.106;21.024;2023-04-29T08:31:16;9.57;;;4.80;;
22030;SDS011;11179;52.106;21.024;2023-04-29T08:33:42;10.93;;;4.53;;
22030;SDS011;11179;52.106;21.024;2023-04-29T08:36:07;10.33;;;4.80;;
22030;SDS011;11179;52.106;21.024;2023-04-29T08:38:33;9.07;;;4.70;;
22030;SDS011;11179;52.106;21.024;2023-04-29T08:40:58;9.57;;;5.00;;
22030;SDS011;11179;52.106;21.024;2023-04-29T08:43:25;12.03;;;4.87;;
22030;SDS011;11179;52.106;21.024;2023-04-29T08:45:51;8.83;;;4.00;;
22030;SDS011;11179;52.106;21.024;2023-04-29T08:48:17;8.17;;;4.70;;
22030;SDS011;11179;52.106;21.024;2023-04-29T08:50:43;11.77;;;5.03;;
22030;SDS011;11179;52.106;21.024;2023-04-29T08:53:09;10.40;;;4.60;;
22030;SDS011;11179;52.106;21.024;2023-04-29T08:55:39;10.67;;;4.80;;
22030;SDS011;11179;52.106;21.024;2023-04-29T08:58:05;20.00;;;5.07;;
22030;SDS011;11179;52.106;21.024;2023-04-29T09:00:31;7.17;;;3.50;;
22030;SDS011;11179;52.106;21.024;2023-04-29T09:02:58;14.43;;;5.00;;
22030;SDS011;11179;52.106;21.024;2023-04-29T09:05:24;12.53;;;4.90;;
22030;SDS011;11179;52.106;21.024;2023-04-29T09:07:51;10.90;;;4.93;;
22030;SDS011;11179;52.106;21.024;2023-04-29T09:10:17;17.20;;;4.33;;
22030;SDS011;11179;52.106;21.024;2023-04-29T09:12:43;10.33;;;4.50;;
22030;SDS011;11179;52.106;21.024;2023-04-29T09:15:10;9.00;;;4.40;;
22030;SDS011;11179;52.106;21.024;2023-04-29T09:17:42;9.50;;;5.13;;
22030;SDS011;11179;52.106;21.024;2023-04-29T09:22:51;12.00;;;4.53;;
22030;SDS011;11179;52.106;21.024;2023-04-29T09:25:18;10.57;;;4.30;;
22030;SDS011;11179;52.106;21.024;2023-04-29T09:27:44;10.70;;;4.27;;
22030;SDS011;11179;52.106;21.024;2023-04-29T09:30:10;12.13;;;4.40;;
22030;SDS011;11179;52.106;21.024;2023-04-29T09:32:40;12.30;;;5.03;;
22030;SDS011;11179;52.106;21.024;2023-04-29T09:38:08;8.30;;;3.70;;
22030;SDS011;11179;52.106;21.024;2023-04-29T09:40:35;8.87;;;4.33;;
22030;SDS011;11179;52.106;21.024;2023-04-29T09:43:01;11.70;;;4.40;;
22030;SDS011;11179;52.106;21.024;2023-04-29T09:48:03;7.00;;;3.63;;
22030;SDS011;11179;52.106;21.024;2023-04-29T09:50:29;10.97;;;3.97;;
22030;SDS011;11179;52.106;21.024;2023-04-29T09:52:56;9.73;;;4.30;;
22030;SDS011;11179;52.106;21.024;2023-04-29T09:55:22;12.57;;;4.53;;
22030;SDS011;11179;52.106;21.024;2023-04-29T09:57:47;13.80;;;4.50;;
22030;SDS011;11179;52.106;21.024;2023-04-29T10:00:13;17.30;;;4.93;;
22030;SDS011;11179;52.106;21.024;2023-04-29T10:02:44;12.10;;;4.53;;
22030;SDS011;11179;52.106;21.024;2023-04-29T10:05:11;9.10;;;4.20;;
22030;SDS011;11179;52.106;21.024;2023-04-29T10:07:39;8.97;;;4.00;;
22030;SDS011;11179;52.106;21.024;2023-04-29T10:10:05;10.83;;;4.00;;
22030;SDS011;11179;52.106;21.024;2023-04-29T10:12:32;8.17;;;3.80;;
22030;SDS011;11179;52.106;21.024;2023-04-29T10:15:03;8.67;;;3.60;;
22030;SDS011;11179;52.106;21.024;2023-04-29T10:17:35;7.43;;;3.03;;
22030;SDS011;11179;52.106;21.024;2023-04-29T10:20:07;11.60;;;3.87;;
22030;SDS011;11179;52.106;21.024;2023-04-29T10:25:12;8.93;;;4.40;;
22030;SDS011;11179;52.106;21.024;2023-04-29T10:27:43;7.90;;;4.40;;
22030;SDS011;11179;52.106;21.024;2023-04-29T10:30:15;15.23;;;5.83;;
22030;SDS011;11179;52.106;21.024;2023-04-29T10:32:45;8.30;;;4.00;;
22030;SDS011;11179;52.106;21.024;2023-04-29T10:35:13;9.93;;;4.33;;
22030;SDS011;11179;52.106;21.024;2023-04-29T10:37:40;10.03;;;3.80;;
22030;SDS011;11179;52.106;21.024;2023-04-29T10:40:17;10.77;;;4.37;;
22030;SDS011;11179;52.106;21.024;2023-04-29T10:42:49;10.93;;;4.20;;
22030;SDS011;11179;52.106;21.024;2023-04-29T10:45:19;10.70;;;4.03;;
22030;SDS011;11179;52.106;21.024;2023-04-29T10:50:33;6.83;;;3.50;;
22030;SDS011;11179;52.106;21.024;2023-04-29T10:53:02;8.27;;;3.83;;
22030;SDS011;11179;52.106;21.024;2023-04-29T10:55:29;12.40;;;4.17;;
22030;SDS011;11179;52.106;21.024;2023-04-29T10:57:55;9.80;;;4.23;;
22030;SDS011;11179;52.106;21.024;2023-04-29T11:00:27;10.03;;;3.70;;
22030;SDS011;11179;52.106;21.024;2023-04-29T11:02:55;9.93;;;3.90;;
22030;SDS011;11179;52.106;21.024;2023-04-29T11:05:30;8.77;;;3.73;;
22030;SDS011;11179;52.106;21.024;2023-04-29T11:08:18;7.60;;;4.53;;
22030;SDS011;11179;52.106;21.024;2023-04-29T11:10:47;7.87;;;4.33;;
22030;SDS011;11179;52.106;21.024;2023-04-29T11:13:20;12.60;;;4.50;;
22030;SDS011;11179;52.106;21.024;2023-04-29T11:16:13;7.97;;;4.00;;
22030;SDS011;11179;52.106;21.024;2023-04-29T11:21:29;9.50;;;3.90;;
22030;SDS011;11179;52.106;21.024;2023-04-29T11:23:56;9.53;;;4.50;;
22030;SDS011;11179;52.106;21.024;2023-04-29T11:26:22;9.57;;;4.57;;
22030;SDS011;11179;52.106;21.024;2023-04-29T11:28:48;9.23;;;4.57;;
22030;SDS011;11179;52.106;21.024;2023-04-29T11:31:15;11.50;;;4.60;;
22030;SDS011;11179;52.106;21.024;2023-04-29T11:33:41;9.47;;;4.80;;
22030;SDS011;11179;52.106;21.024;2023-04-29T11:36:06;13.20;;;4.87;;
22030;SDS011;11179;52.106;21.024;2023-04-29T11:38:35;9.13;;;4.50;;
22030;SDS011;11179;52.106;21.024;2023-04-29T11:41:03;14.60;;;4.40;;
22030;SDS011;11179;52.106;21.024;2023-04-29T11:43:29;7.80;;;3.90;;
22030;SDS011;11179;52.106;21.024;2023-04-29T11:45:54;7.87;;;4.03;;
22030;SDS011;11179;52.106;21.024;2023-04-29T11:48:20;7.23;;;3.50;;
22030;SDS011;11179;52.106;21.024;2023-04-29T11:50:57;8.30;;;4.40;;
22030;SDS011;11179;52.106;21.024;2023-04-29T11:53:24;9.33;;;4.20;;
22030;SDS011;11179;52.106;21.024;2023-04-29T11:55:52;8.10;;;3.73;;
22030;SDS011;11179;52.106;21.024;2023-04-29T11:58:19;9.93;;;4.43;;
22030;SDS011;11179;52.106;21.024;2023-04-29T12:00:48;8.50;;;4.13;;
22030;SDS011;11179;52.106;21.024;2023-04-29T12:03:15;9.03;;;4.33;;
22030;SDS011;11179;52.106;21.024;2023-04-29T12:05:46;10.87;;;4.10;;
22030;SDS011;11179;52.106;21.024;2023-04-29T12:08:13;10.57;;;4.33;;
22030;SDS011;11179;52.106;21.024;2023-04-29T12:10:38;9.83;;;4.30;;
22030;SDS011;11179;52.106;21.024;2023-04-29T12:13:05;12.83;;;4.60;;
22030;SDS011;11179;52.106;21.024;2023-04-29T12:15:30;8.50;;;4.40;;
22030;SDS011;11179;52.106;21.024;2023-04-29T12:17:57;9.07;;;4.60;;
22030;SDS011;11179;52.106;21.024;2023-04-29T12:20:22;7.27;;;3.93;;
22030;SDS011;11179;52.106;21.024;2023-04-29T12:22:48;13.53;;;4.43;;
22030;SDS011;11179;52.106;21.024;2023-04-29T12:25:14;7.77;;;4.07;;
22030;SDS011;11179;52.106;21.024;2023-04-29T12:27:39;9.83;;;4.13;;
22030;SDS011;11179;52.106;21.024;2023-04-29T12:30:08;9.77;;;4.13;;
22030;SDS011;11179;52.106;21.024;2023-04-29T12:32:34;6.27;;;3.70;;
22030;SDS011;11179;52.106;21.024;2023-04-29T12:35:00;10.20;;;4.40;;
22030;SDS011;11179;52.106;21.024;2023-04-29T12:37:26;11.63;;;4.47;;
22030;SDS011;11179;52.106;21.024;2023-04-29T12:39:53;9.47;;;4.57;;
22030;SDS011;11179;52.106;21.024;2023-04-29T12:42:19;11.73;;;4.90;;
22030;SDS011;11179;52.106;21.024;2023-04-29T12:44:44;8.83;;;4.50;;
22030;SDS011;11179;52.106;21.024;2023-04-29T12:47:13;11.50;;;5.20;;
22030;SDS011;11179;52.106;21.024;2023-04-29T12:49:40;9.13;;;4.60;;
22030;SDS011;11179;52.106;21.024;2023-04-29T12:52:07;9.50;;;4.80;;
22030;SDS011;11179;52.106;21.024;2023-04-29T12:54:34;8.63;;;4.83;;
22030;SDS011;11179;52.106;21.024;2023-04-29T12:57:07;7.80;;;4.60;;
22030;SDS011;11179;52.106;21.024;2023-04-29T12:59:36;8.13;;;4.40;;
22030;SDS011;11179;52.106;21.024;2023-04-29T13:02:01;10.50;;;5.10;;
22030;SDS011;11179;52.106;21.024;2023-04-29T13:04:27;7.37;;;4.17;;
22030;SDS011;11179;52.106;21.024;2023-04-29T13:06:52;9.37;;;4.37;;
22030;SDS011;11179;52.106;21.024;2023-04-29T13:09:24;13.57;;;4.83;;
22030;SDS011;11179;52.106;21.024;2023-04-29T13:11:49;8.83;;;3.93;;
22030;SDS011;11179;52.106;21.024;2023-04-29T13:14:14;11.07;;;5.30;;
22030;SDS011;11179;52.106;21.024;2023-04-29T13:16:40;11.10;;;4.33;;
22030;SDS011;11179;52.106;21.024;2023-04-29T13:19:06;11.60;;;4.47;;
22030;SDS011;11179;52.106;21.024;2023-04-29T13:21:31;8.10;;;4.50;;
22030;SDS011;11179;52.106;21.024;2023-04-29T13:23:56;8.93;;;4.50;;
22030;SDS011;11179;52.106;21.024;2023-04-29T13:26:22;15.50;;;4.83;;
22030;SDS011;11179;52.106;21.024;2023-04-29T13:28:49;14.73;;;4.90;;
22030;SDS011;11179;52.106;21.024;2023-04-29T13:31:15;11.67;;;4.27;;
22030;SDS011;11179;52.106;21.024;2023-04-29T13:33:40;13.20;;;5.10;;
22030;SDS011;11179;52.106;21.024;2023-04-29T13:36:07;12.23;;;4.40;;
22030;SDS011;11179;52.106;21.024;2023-04-29T13:38:33;12.83;;;4.70;;
22030;SDS011;11179;52.106;21.024;2023-04-29T13:40:58;9.27;;;4.67;;
22030;SDS011;11179;52.106;21.024;2023-04-29T13:43:24;10.37;;;4.73;;
22030;SDS011;11179;52.106;21.024;2023-04-29T13:45:49;10.07;;;5.03;;
22030;SDS011;11179;52.106;21.024;2023-04-29T13:48:15;14.17;;;5.10;;
22030;SDS011;11179;52.106;21.024;2023-04-29T13:50:40;22.13;;;5.13;;
22030;SDS011;11179;52.106;21.024;2023-04-29T13:53:06;11.20;;;4.73;;
22030;SDS011;11179;52.106;21.024;2023-04-29T13:55:32;13.53;;;5.10;;
22030;SDS011;11179;52.106;21.024;2023-04-29T13:57:59;11.00;;;4.70;;
22030;SDS011;11179;52.106;21.024;2023-04-29T14:00:24;9.57;;;4.77;;
22030;SDS011;11179;52.106;21.024;2023-04-29T14:02:50;10.73;;;4.37;;
22030;SDS011;11179;52.106;21.024;2023-04-29T14:05:15;8.83;;;4.53;;
22030;SDS011;11179;52.106;21.024;2023-04-29T14:07:41;9.60;;;5.30;;
22030;SDS011;11179;52.106;21.024;2023-04-29T14:10:06;9.13;;;4.23;;
22030;SDS011;11179;52.106;21.024;2023-04-29T14:12:32;10.07;;;4.87;;
22030;SDS011;11179;52.106;21.024;2023-04-29T14:14:57;9.07;;;4.57;;
22030;SDS011;11179;52.106;21.024;2023-04-29T14:17:22;9.53;;;4.87;;
22030;SDS011;11179;52.106;21.024;2023-04-29T14:19:47;18.30;;;7.87;;
22030;SDS011;11179;52.106;21.024;2023-04-29T14:22:13;15.13;;;7.10;;
22030;SDS011;11179;52.106;21.024;2023-04-29T14:24:38;12.87;;;5.63;;
22030;SDS011;11179;52.106;21.024;2023-04-29T14:27:03;11.43;;;4.87;;
22030;SDS011;11179;52.106;21.024;2023-04-29T14:29:29;10.17;;;4.40;;
22030;SDS011;11179;52.106;21.024;2023-04-29T14:31:54;10.27;;;4.57;;
22030;SDS011;11179;52.106;21.024;2023-04-29T14:34:20;8.47;;;4.33;;
22030;SDS011;11179;52.106;21.024;2023-04-29T14:36:46;10.93;;;4.03;;
22030;SDS011;11179;52.106;21.024;2023-04-29T14:39:11;10.30;;;5.10;;
22030;SDS011;11179;52.106;21.024;2023-04-29T14:41:37;11.10;;;5.60;;
22030;SDS011;11179;52.106;21.024;2023-04-29T14:44:02;7.97;;;4.70;;
22030;SDS011;11179;52.106;21.024;2023-04-29T14:46:28;13.53;;;4.70;;